Time;durP1;ratioP1;P1;durP2;ratioP2;P2;SDS_P1;SDS_P2;PMS_P1;PMS_P2;Temp;Humidity;BMP_temperature;BMP_pressure;BME280_temperature;BME280_humidity;BME280_pressure;Samples;Min_cycle;Max_cycle;Signal;HPM_P1;HPM_P2
2023/07/09 00:00:48;;;;;;;2.33;1.33;;;;;;;23.09;57.42;99873.44;5051126;28;20037;-81
2023/07/09 00:03:14;;;;;;;1.70;1.20;;;;;;;22.99;56.84;99852.47;5052484;28;20190;-82
2023/07/09 00:05:40;;;;;;;1.88;1.63;;;;;;;23.12;57.04;99862.47;5052403;28;20029;-81
2023/07/09 00:08:16;;;;;;;2.72;1.50;;;;;;;23.03;56.84;99858.50;5050753;28;20052;-81
2023/07/09 00:10:41;;;;;;;1.70;1.00;;;;;;;22.89;56.85;99849.53;5052143;28;20090;-81
2023/07/09 00:13:07;;;;;;;2.20;1.33;;;;;;;23.06;56.35;99875.34;5051381;28;20057;-80
2023/07/09 00:15:33;;;;;;;2.33;1.60;;;;;;;22.80;56.78;99847.41;5052165;28;20045;-80
2023/07/09 00:18:00;;;;;;;2.50;1.73;;;;;;;23.01;56.23;99850.53;5051876;28;20037;-81
2023/07/09 00:20:25;;;;;;;2.20;1.30;;;;;;;22.88;56.69;99863.91;5052348;28;20060;-81
2023/07/09 00:22:54;;;;;;;1.80;1.42;;;;;;;22.73;56.58;99845.22;5050382;28;20490;-81
2023/07/09 00:25:20;;;;;;;1.75;1.08;;;;;;;22.55;57.50;99847.22;5050906;28;20040;-83
2023/07/09 00:27:49;;;;;;;2.15;1.17;;;;;;;22.56;56.19;99831.00;5052059;28;20044;-81
2023/07/09 00:30:21;;;;;;;1.88;1.02;;;;;;;22.55;56.55;99844.53;5052067;28;20033;-81
2023/07/09 00:32:47;;;;;;;2.53;1.65;;;;;;;22.66;56.33;99853.66;5049764;28;20033;-81
2023/07/09 00:35:15;;;;;;;2.83;1.95;;;;;;;22.26;57.18;99797.00;5051690;28;20040;-81
2023/07/09 00:37:43;;;;;;;3.17;1.23;;;;;;;22.69;56.34;99869.59;5051461;28;20178;-82
2023/07/09 00:40:16;;;;;;;2.63;1.88;;;;;;;22.47;56.75;99842.31;5052023;28;20064;-81
2023/07/09 00:42:45;;;;;;;13.05;1.75;;;;;;;22.48;56.32;99839.53;5050654;28;20035;-83
2023/07/09 00:45:22;;;;;;;1.60;1.02;;;;;;;22.65;55.58;99845.69;5050880;28;20524;-81
2023/07/09 00:48:06;;;;;;;2.92;1.83;;;;;;;22.73;55.67;99858.66;5050007;28;20494;-81
2023/07/09 00:50:52;;;;;;;1.80;1.08;;;;;;;22.49;56.12;99838.59;5051722;28;20166;-80
2023/07/09 00:53:29;;;;;;;3.35;1.95;;;;;;;22.27;55.67;99798.69;5050960;28;20037;-80
2023/07/09 00:56:05;;;;;;;3.03;1.50;;;;;;;22.22;56.10;99808.00;5051455;28;20105;-81
2023/07/09 00:58:33;;;;;;;2.17;1.60;;;;;;;22.53;56.00;99856.22;5031171;28;20034;-82
2023/07/09 01:01:07;;;;;;;2.17;1.40;;;;;;;22.42;55.85;99833.69;5032057;28;20040;-81
2023/07/09 01:03:42;;;;;;;2.20;0.90;;;;;;;22.35;55.32;99836.75;5031273;28;20037;-81
2023/07/09 01:06:09;;;;;;;1.88;1.02;;;;;;;22.49;55.29;99859.19;5043068;28;20037;-82
2023/07/09 01:08:38;;;;;;;2.28;1.00;;;;;;;22.50;54.97;99856.41;5050847;28;20032;-82
2023/07/09 01:11:04;;;;;;;1.40;1.15;;;;;;;22.36;55.72;99845.66;5050834;28;20054;-82
2023/07/09 01:13:32;;;;;;;1.70;0.95;;;;;;;22.55;55.25;99864.19;5050871;28;20464;-83
2023/07/09 01:15:59;;;;;;;1.58;1.13;;;;;;;22.32;55.55;99833.38;5051094;28;20052;-83
2023/07/09 01:18:24;;;;;;;2.03;1.38;;;;;;;22.34;55.41;99843.06;5051115;28;20033;-86
2023/07/09 01:20:52;;;;;;;2.40;1.83;;;;;;;22.46;55.62;99865.66;5049739;28;20040;-82
2023/07/09 01:23:18;;;;;;;2.17;1.50;;;;;;;22.38;55.68;99857.19;5050412;28;20053;-82
2023/07/09 01:25:52;;;;;;;1.50;1.05;;;;;;;22.47;55.65;99848.53;5050787;28;20059;-82
2023/07/09 01:28:18;;;;;;;2.72;1.77;;;;;;;22.43;55.98;99881.09;5050313;28;20039;-82
2023/07/09 01:30:44;;;;;;;1.67;1.20;;;;;;;21.88;56.60;99800.19;5050378;28;20021;-83
2023/07/09 01:33:10;;;;;;;2.22;1.38;;;;;;;22.01;56.81;99824.47;5049990;28;20036;-81
2023/07/09 01:35:40;;;;;;;1.75;1.50;;;;;;;22.17;56.38;99846.75;5050479;28;20377;-81
2023/07/09 01:38:06;;;;;;;2.03;1.35;;;;;;;22.08;56.66;99844.63;5050603;28;20025;-82
2023/07/09 01:40:33;;;;;;;4.72;1.48;;;;;;;22.17;56.87;99864.72;5050596;28;20025;-82
2023/07/09 01:43:01;;;;;;;2.33;1.75;;;;;;;22.12;56.68;99858.72;5049304;28;20029;-82
2023/07/09 01:45:28;;;;;;;3.20;1.42;;;;;;;21.90;56.48;99826.94;5050299;28;20045;-83
2023/07/09 01:47:55;;;;;;;1.02;1.00;;;;;;;21.98;56.61;99836.28;5050758;28;20491;-82
2023/07/09 01:50:20;;;;;;;2.35;1.15;;;;;;;22.05;56.88;99868.13;5049096;28;20025;-83
2023/07/09 01:52:49;;;;;;;3.10;1.35;;;;;;;21.75;57.26;99834.09;5050230;28;20392;-82
2023/07/09 01:55:16;;;;;;;1.63;1.10;;;;;;;21.94;56.83;99856.22;5050572;28;20036;-82
2023/07/09 01:57:42;;;;;;;3.47;1.40;;;;;;;21.75;57.07;99840.34;5050056;28;20040;-82
2023/07/09 02:00:13;;;;;;;2.05;1.17;;;;;;;21.92;56.63;99874.25;5050192;28;20029;-81
2023/07/09 02:02:42;;;;;;;1.20;1.02;;;;;;;21.60;57.05;99831.34;5050446;28;20025;-82
2023/07/09 02:05:09;;;;;;;2.95;1.48;;;;;;;21.85;56.89;99872.88;5048667;28;20513;-82
2023/07/09 02:07:34;;;;;;;2.70;1.17;;;;;;;21.75;57.58;99855.56;5050541;28;20116;-82
2023/07/09 02:10:00;;;;;;;2.55;1.30;;;;;;;21.66;57.02;99846.25;5049494;28;20124;-82
2023/07/09 02:12:26;;;;;;;2.70;1.27;;;;;;;21.60;57.18;99847.47;5050072;28;20060;-81
2023/07/09 02:14:51;;;;;;;2.72;1.40;;;;;;;21.88;57.13;99896.84;5050125;28;20033;-81
2023/07/09 02:17:17;;;;;;;5.40;2.05;;;;;;;21.79;56.99;99882.13;5050192;28;20410;-81
2023/07/09 02:19:43;;;;;;;1.33;1.00;;;;;;;21.73;56.49;99861.00;5049827;28;20033;-82
2023/07/09 02:22:09;;;;;;;1.48;1.23;;;;;;;21.86;56.36;99904.13;5050120;28;20175;-81
2023/07/09 02:24:35;;;;;;;2.25;1.55;;;;;;;21.78;56.22;99867.00;5050109;28;20029;-82
2023/07/09 02:27:04;;;;;;;3.20;1.50;;;;;;;21.81;56.58;99887.41;5049769;28;20044;-82
2023/07/09 02:29:31;;;;;;;11.15;2.58;;;;;;;21.81;55.90;99868.63;5050032;28;20391;-81
2023/07/09 02:31:58;;;;;;;2.65;1.42;;;;;;;21.92;56.37;99901.09;5051369;28;20058;-81
2023/07/09 02:34:26;;;;;;;2.97;1.30;;;;;;;21.74;56.21;99880.69;5035613;28;20076;-80
2023/07/09 02:36:53;;;;;;;2.33;1.35;;;;;;;21.73;56.70;99887.00;5054038;28;20021;-78
2023/07/09 02:39:19;;;;;;;1.88;1.23;;;;;;;21.92;56.32;99921.69;5053645;28;20036;-79
2023/07/09 02:41:45;;;;;;;3.38;1.75;;;;;;;21.77;56.54;99905.53;5053971;28;20107;-79
2023/07/09 02:44:10;;;;;;;2.90;1.40;;;;;;;21.68;56.61;99906.06;5054129;28;20558;-79
2023/07/09 02:46:36;;;;;;;5.30;1.75;;;;;;;21.79;56.53;99926.91;5053475;28;20403;-79
2023/07/09 02:49:04;;;;;;;2.03;1.23;;;;;;;21.66;56.76;99904.41;5053277;28;20044;-79
2023/07/09 02:51:29;;;;;;;1.10;0.90;;;;;;;21.80;56.22;99888.38;5052696;28;20028;-78
2023/07/09 02:53:56;;;;;;;2.50;1.38;;;;;;;21.88;56.26;99901.38;5053157;28;20049;-80
2023/07/09 02:56:23;;;;;;;1.45;0.93;;;;;;;21.72;56.43;99931.78;5053714;28;20033;-80
2023/07/09 02:58:52;;;;;;;1.88;1.02;;;;;;;21.75;56.34;99915.50;5053747;28;20033;-80
2023/07/09 03:01:21;;;;;;;2.55;1.40;;;;;;;21.36;56.54;99894.47;5053094;28;20029;-81
2023/07/09 03:03:47;;;;;;;1.70;1.05;;;;;;;21.71;56.58;99929.19;5035809;28;20055;-80
2023/07/09 03:06:12;;;;;;;1.88;1.42;;;;;;;21.77;56.22;99927.00;5053405;28;20033;-79
2023/07/09 03:08:38;;;;;;;2.50;1.27;;;;;;;21.85;55.94;99914.97;5052835;28;20033;-79
2023/07/09 03:11:11;;;;;;;1.38;0.93;;;;;;;21.56;56.98;99913.00;5035250;28;20033;-80
2023/07/09 03:13:37;;;;;;;1.45;1.30;;;;;;;21.62;56.03;99920.69;5053058;28;20080;-79
2023/07/09 03:16:02;;;;;;;1.70;1.10;;;;;;;21.62;56.20;99925.22;5052621;28;20056;-79
2023/07/09 03:18:28;;;;;;;3.70;1.38;;;;;;;21.70;57.32;99949.78;5053501;28;20414;-79
2023/07/09 03:20:53;;;;;;;2.60;1.27;;;;;;;21.70;56.63;99933.69;5053262;28;20094;-79
2023/07/09 03:23:19;;;;;;;1.25;1.00;;;;;;;21.68;56.50;99932.06;5053052;28;20025;-79
2023/07/09 03:25:45;;;;;;;2.50;1.40;;;;;;;21.80;56.59;99934.88;5053158;28;20465;-79
2023/07/09 03:28:11;;;;;;;5.82;0.80;;;;;;;21.71;55.66;99929.19;5052985;28;20108;-79
2023/07/09 03:30:43;;;;;;;1.83;1.27;;;;;;;21.73;56.18;99938.88;5052199;28;20059;-80
2023/07/09 03:33:10;;;;;;;0.77;0.77;;;;;;;21.75;57.50;99949.53;5053420;28;20029;-80
2023/07/09 03:35:36;;;;;;;1.65;0.95;;;;;;;21.56;56.26;99941.66;5052686;28;20485;-79
2023/07/09 03:38:02;;;;;;;3.75;1.67;;;;;;;21.57;56.42;99946.09;5053498;28;20384;-78
2023/07/09 03:40:27;;;;;;;1.75;1.30;;;;;;;21.87;55.97;99953.31;5052444;28;20040;-79
2023/07/09 03:42:53;;;;;;;1.35;0.90;;;;;;;21.86;55.84;99941.72;5051321;28;20771;-79
2023/07/09 03:45:18;;;;;;;1.23;0.82;;;;;;;22.06;55.81;99963.84;5052308;28;20025;-79
2023/07/09 03:47:44;;;;;;;1.25;0.90;;;;;;;22.12;55.28;99929.47;5052504;28;20029;-79
2023/07/09 03:50:10;;;;;;;1.58;0.95;;;;;;;22.12;55.48;99925.88;5052086;28;20505;-79
2023/07/09 03:52:35;;;;;;;1.40;1.10;;;;;;;22.31;56.00;99966.00;5052590;28;20029;-80
2023/07/09 03:55:03;;;;;;;2.00;1.17;;;;;;;22.24;55.86;99970.84;5052191;28;20178;-79
2023/07/09 03:57:30;;;;;;;2.92;2.15;;;;;;;22.13;55.62;99974.16;5051643;28;20144;-79
2023/07/09 03:59:56;;;;;;;1.80;1.30;;;;;;;22.25;55.24;99985.16;5052264;28;20041;-79
2023/07/09 04:02:21;;;;;;;3.13;2.00;;;;;;;22.08;55.96;99945.84;5049247;28;20029;-80
2023/07/09 04:04:47;;;;;;;1.50;0.68;;;;;;;22.08;55.25;99929.72;5049839;28;20029;-79
2023/07/09 04:07:13;;;;;;;2.20;1.05;;;;;;;22.40;55.07;99951.13;5052320;28;20033;-80
2023/07/09 04:09:38;;;;;;;3.25;1.70;;;;;;;22.21;55.73;99944.16;5044466;28;20033;-80
2023/07/09 04:12:05;;;;;;;2.03;1.42;;;;;;;22.55;54.76;99943.97;5051177;28;20478;-80
2023/07/09 04:14:30;;;;;;;1.90;1.35;;;;;;;22.61;54.45;99948.97;5051716;28;20041;-80
2023/07/09 04:16:57;;;;;;;2.63;1.38;;;;;;;22.92;54.60;99974.84;5052215;28;20025;-81
2023/07/09 04:19:23;;;;;;;3.67;1.65;;;;;;;22.76;54.82;99961.50;5049015;28;20483;-81
2023/07/09 04:21:48;;;;;;;1.75;1.23;;;;;;;22.93;54.36;99984.66;5050797;28;20036;-80
2023/07/09 04:24:16;;;;;;;2.67;1.30;;;;;;;22.86;54.41;99957.28;5051184;28;20033;-80
2023/07/09 04:26:42;;;;;;;2.65;1.75;;;;;;;23.20;53.90;99978.53;5051955;28;20075;-80
2023/07/09 04:29:07;;;;;;;1.67;1.13;;;;;;;23.06;54.15;99999.09;5052121;28;20502;-81
2023/07/09 04:31:33;;;;;;;1.33;1.17;;;;;;;23.26;53.87;99971.91;5052183;28;20466;-80
2023/07/09 04:33:58;;;;;;;5.45;2.17;;;;;;;23.04;53.28;99984.84;5050973;28;20036;-80
2023/07/09 04:36:24;;;;;;;1.83;1.67;;;;;;;23.15;53.92;99988.72;5051386;28;20057;-79
2023/07/09 04:38:50;;;;;;;2.10;1.42;;;;;;;23.58;53.85;99994.94;5051254;28;20040;-80
2023/07/09 04:41:15;;;;;;;2.17;1.20;;;;;;;23.41;52.92;99987.94;5051357;28;20024;-80
2023/07/09 04:43:41;;;;;;;1.58;0.95;;;;;;;23.49;52.37;99991.97;5050871;28;20040;-80
2023/07/09 04:46:07;;;;;;;1.58;1.25;;;;;;;23.32;52.14;99996.59;5051394;28;20029;-79
2023/07/09 04:48:32;;;;;;;2.35;1.27;;;;;;;23.37;51.94;99983.72;5051388;28;20035;-79
2023/07/09 04:50:59;;;;;;;2.17;1.05;;;;;;;23.57;52.47;99989.63;5051497;28;20103;-79
2023/07/09 04:53:25;;;;;;;2.72;1.58;;;;;;;23.87;51.43;99996.75;5051158;28;20458;-81
2023/07/09 04:55:51;;;;;;;2.90;1.63;;;;;;;23.73;50.37;100003.84;5050972;28;20059;-79
2023/07/09 04:58:18;;;;;;;3.40;1.48;;;;;;;23.89;50.62;100016.34;5050781;28;20048;-80
2023/07/09 05:00:45;;;;;;;4.13;1.60;;;;;;;23.92;49.32;99986.53;5051306;28;20033;-81
2023/07/09 05:03:11;;;;;;;5.78;1.75;;;;;;;24.08;49.83;99984.53;5051095;28;20025;-82
2023/07/09 05:05:42;;;;;;;2.92;1.60;;;;;;;24.18;48.82;99978.53;5051404;28;20040;-81
2023/07/09 05:08:08;;;;;;;3.35;1.83;;;;;;;24.52;49.40;99995.97;5050302;28;20037;-81
2023/07/09 05:10:33;;;;;;;3.50;1.67;;;;;;;24.45;48.67;99975.78;5049928;28;20043;-81
2023/07/09 05:12:59;;;;;;;1.58;1.15;;;;;;;24.25;48.77;99977.13;5050716;28;20498;-81
2023/07/09 05:15:25;;;;;;;1.45;0.82;;;;;;;24.47;47.59;100008.91;5050996;28;20036;-81
2023/07/09 05:17:50;;;;;;;2.65;1.30;;;;;;;24.74;49.68;99965.72;5050446;28;20043;-81
2023/07/09 05:20:16;;;;;;;1.25;0.88;;;;;;;25.22;49.44;99993.88;5051262;28;20051;-81
2023/07/09 05:22:42;;;;;;;1.83;1.30;;;;;;;24.73;49.22;99942.44;5051288;28;20471;-82
2023/07/09 05:25:08;;;;;;;1.30;1.13;;;;;;;24.81;47.84;99963.47;5050535;28;20029;-85
2023/07/09 05:27:33;;;;;;;0.82;0.75;;;;;;;25.27;47.69;100003.38;5048938;28;20120;-84
2023/07/09 05:30:00;;;;;;;1.77;0.95;;;;;;;25.12;45.87;99980.19;5050335;28;20140;-83
2023/07/09 05:32:25;;;;;;;1.77;1.15;;;;;;;25.30;45.37;100008.59;5049056;28;20040;-83
2023/07/09 05:34:51;;;;;;;6.78;1.60;;;;;;;25.38;45.20;99987.31;5048570;28;20037;-84
2023/07/09 05:37:16;;;;;;;1.15;0.68;;;;;;;25.37;47.28;99969.38;5046835;28;20033;-87
2023/07/09 05:39:42;;;;;;;6.72;2.13;;;;;;;25.64;45.44;99965.63;5047002;28;20108;-83
2023/07/09 05:42:08;;;;;;;1.20;1.08;;;;;;;25.91;45.92;99991.56;5048362;28;20033;-84
2023/07/09 05:44:33;;;;;;;1.00;0.80;;;;;;;25.56;44.65;99976.13;5047832;28;20029;-84
2023/07/09 05:46:58;;;;;;;2.25;1.20;;;;;;;25.52;46.50;99959.28;5048718;28;20025;-84
2023/07/09 05:49:24;;;;;;;4.25;1.30;;;;;;;25.58;46.27;99967.91;5049179;28;20454;-83
2023/07/09 05:51:49;;;;;;;2.40;1.75;;;;;;;25.88;44.07;99989.09;5050165;28;20033;-84
2023/07/09 05:54:15;;;;;;;1.85;1.23;;;;;;;25.79;43.11;99949.25;5046524;28;20053;-84
2023/07/09 05:56:40;;;;;;;2.22;1.42;;;;;;;25.96;43.33;99983.13;5046431;28;20040;-85
2023/07/09 05:59:06;;;;;;;1.77;0.98;;;;;;;25.62;43.28;99931.59;5044478;28;20049;-84
2023/07/09 06:01:32;;;;;;;1.00;0.80;;;;;;;25.79;42.74;99946.56;5042877;28;20029;-83
2023/07/09 06:03:57;;;;;;;3.60;1.30;;;;;;;26.36;43.08;99955.81;5049036;28;20040;-84
2023/07/09 06:06:23;;;;;;;4.15;1.42;;;;;;;26.55;42.93;99964.19;5030696;28;20483;-84
2023/07/09 06:08:50;;;;;;;2.38;1.60;;;;;;;26.34;41.30;99928.88;5049038;28;20056;-84
2023/07/09 06:11:17;;;;;;;1.30;1.13;;;;;;;26.47;41.03;99963.94;5049186;28;20033;-84
2023/07/09 06:13:43;;;;;;;6.80;1.58;;;;;;;26.57;42.05;99951.44;5049077;28;20426;-83
2023/07/09 06:16:08;;;;;;;1.70;1.02;;;;;;;26.65;41.78;99948.13;5049590;28;20028;-83
2023/07/09 06:18:34;;;;;;;3.50;1.35;;;;;;;26.48;41.75;99948.56;5049191;28;20066;-82
2023/07/09 06:21:02;;;;;;;1.90;1.10;;;;;;;26.62;43.46;99930.28;5049157;28;20025;-84
2023/07/09 06:23:28;;;;;;;3.30;1.30;;;;;;;26.69;42.44;99965.88;5048557;28;20499;-84
2023/07/09 06:25:54;;;;;;;0.70;0.70;;;;;;;26.79;41.34;99957.91;5049150;28;20424;-84
2023/07/09 06:28:22;;;;;;;1.42;0.98;;;;;;;26.84;40.72;99960.25;5049877;28;20118;-86
2023/07/09 06:30:48;;;;;;;2.10;1.20;;;;;;;26.77;40.74;99919.25;5049297;28;20059;-86
2023/07/09 06:33:15;;;;;;;3.85;1.48;;;;;;;27.49;41.38;99969.50;5047961;28;20025;-85
2023/07/09 06:35:53;;;;;;;2.65;0.93;;;;;;;27.55;39.72;99960.88;5048329;28;20041;-85
2023/07/09 06:38:19;;;;;;;1.25;0.85;;;;;;;27.52;40.02;99963.84;5047818;28;20033;-86
2023/07/09 06:40:46;;;;;;;2.85;1.70;;;;;;;27.49;40.14;99964.09;5046351;28;20029;-87
2023/07/09 06:43:12;;;;;;;1.83;1.58;;;;;;;27.33;39.46;99940.09;5043655;28;20108;-84
2023/07/09 06:45:37;;;;;;;4.15;1.70;;;;;;;27.94;39.51;99982.94;5042508;28;20134;-87
2023/07/09 06:48:03;;;;;;;1.13;0.70;;;;;;;28.12;39.41;99987.88;5041324;28;20041;-86
2023/07/09 06:50:32;;;;;;;0.52;0.52;;;;;;;28.32;38.55;99961.78;5040646;28;20044;-89
2023/07/09 06:52:58;;;;;;;7.90;1.48;;;;;;;28.62;36.84;99973.72;5037031;28;20025;-85
2023/07/09 06:55:23;;;;;;;9.25;1.63;;;;;;;29.18;39.40;99972.44;5042677;28;20029;-84
2023/07/09 06:57:48;;;;;;;1.55;1.08;;;;;;;28.67;37.44;99950.63;5040629;28;20116;-85
2023/07/09 07:00:15;;;;;;;0.90;0.80;;;;;;;28.84;38.76;99929.28;5039370;28;20639;-85
2023/07/09 07:02:40;;;;;;;4.72;1.25;;;;;;;28.71;39.85;99948.50;5041315;28;20127;-84
2023/07/09 07:05:06;;;;;;;1.55;1.10;;;;;;;29.17;38.71;99939.00;5037454;28;20115;-83
2023/07/09 07:07:31;;;;;;;3.85;1.23;;;;;;;29.51;38.92;99946.03;5048098;28;20036;-85
2023/07/09 07:09:57;;;;;;;5.65;1.27;;;;;;;29.61;37.42;99941.44;5047976;28;20041;-85
2023/07/09 07:12:29;;;;;;;2.08;1.00;;;;;;;30.27;36.10;99973.47;5046690;28;20041;-85
2023/07/09 07:14:55;;;;;;;3.72;1.63;;;;;;;30.45;36.88;99970.06;5040186;28;20116;-85
2023/07/09 07:17:22;;;;;;;2.42;1.45;;;;;;;29.92;36.53;99923.22;5047241;28;20036;-85
2023/07/09 07:19:48;;;;;;;1.35;0.90;;;;;;;30.29;37.70;99930.66;5052457;28;20037;-86
2023/07/09 07:22:13;;;;;;;1.98;1.27;;;;;;;30.14;34.50;99919.34;5050755;28;20025;-85
2023/07/09 07:24:39;;;;;;;3.08;1.27;;;;;;;30.12;36.41;99944.97;5052827;28;20395;-85
2023/07/09 07:27:05;;;;;;;3.72;1.45;;;;;;;30.35;36.10;99938.25;5046497;28;20033;-86
2023/07/09 07:29:30;;;;;;;2.17;1.38;;;;;;;30.50;33.98;99932.38;5052309;28;20051;-85
2023/07/09 07:31:55;;;;;;;2.22;1.40;;;;;;;30.90;34.90;99942.16;5051053;28;20033;-85
2023/07/09 07:34:21;;;;;;;0.73;0.60;;;;;;;31.15;34.69;99927.03;5047807;28;20071;-85
2023/07/09 07:36:49;;;;;;;1.98;0.95;;;;;;;30.15;35.07;99880.28;5052366;28;20090;-85
2023/07/09 07:39:15;;;;;;;1.13;0.95;;;;;;;30.96;35.60;99951.63;5052512;28;20478;-84
2023/07/09 07:41:40;;;;;;;1.38;0.82;;;;;;;30.16;34.35;99920.06;5053119;28;20029;-85
2023/07/09 07:44:06;;;;;;;1.70;1.00;;;;;;;29.93;33.85;99930.38;5038752;28;20032;-84
2023/07/09 07:46:33;;;;;;;1.17;0.80;;;;;;;30.27;33.97;99942.69;5052541;28;20501;-84
2023/07/09 07:48:59;;;;;;;3.78;1.40;;;;;;;30.35;36.51;99934.66;5052032;28;20086;-85
2023/07/09 07:51:25;;;;;;;1.42;0.88;;;;;;;31.13;34.41;99915.44;5052190;28;20033;-85
2023/07/09 07:53:50;;;;;;;16.95;1.30;;;;;;;30.75;33.94;99911.81;5052613;28;20017;-84
2023/07/09 07:56:16;;;;;;;1.50;0.90;;;;;;;30.85;34.32;99898.19;5052378;28;20457;-88
2023/07/09 07:58:41;;;;;;;1.85;1.33;;;;;;;30.23;33.34;99901.31;5052216;28;20020;-84
2023/07/09 08:01:07;;;;;;;2.17;1.10;;;;;;;30.49;34.93;99919.75;5051383;28;20052;-85
2023/07/09 08:03:32;;;;;;;8.85;1.85;;;;;;;30.75;34.54;99921.88;5038627;28;20032;-85
2023/07/09 08:05:58;;;;;;;1.70;1.23;;;;;;;30.44;33.79;99914.75;5048137;28;20043;-85
2023/07/09 08:08:23;;;;;;;1.27;0.93;;;;;;;30.54;32.86;99906.59;5050096;28;20406;-85
2023/07/09 08:11:00;;;;;;;2.55;1.13;;;;;;;31.18;35.08;99893.19;5052525;28;20108;-85
2023/07/09 08:13:25;;;;;;;1.77;1.50;;;;;;;31.35;34.25;99910.59;5051486;28;20131;-84
2023/07/09 08:15:51;;;;;;;2.40;0.70;;;;;;;30.64;33.05;99892.97;5051431;28;20119;-85
2023/07/09 08:18:16;;;;;;;1.80;1.17;;;;;;;30.65;33.83;99891.97;5051150;28;20048;-84
2023/07/09 08:20:45;;;;;;;1.42;0.95;;;;;;;30.84;33.86;99867.38;5051581;28;20410;-86
2023/07/09 08:23:11;;;;;;;1.98;1.15;;;;;;;31.14;33.61;99916.28;5051424;28;20033;-88
2023/07/09 08:25:36;;;;;;;1.45;0.70;;;;;;;31.15;35.40;99875.28;5050093;28;20029;-86
2023/07/09 08:28:02;;;;;;;1.05;0.95;;;;;;;31.29;33.66;99876.63;5045739;28;20127;-83
2023/07/09 08:30:27;;;;;;;2.97;1.42;;;;;;;30.99;35.42;99886.00;5047428;28;20033;-86
2023/07/09 08:32:52;;;;;;;2.85;1.30;;;;;;;31.59;34.09;99855.53;5049835;28;20021;-84
2023/07/09 08:35:18;;;;;;;3.15;1.48;;;;;;;32.05;33.07;99869.06;5047067;28;20060;-84
2023/07/09 08:37:43;;;;;;;1.52;0.90;;;;;;;32.30;33.88;99902.88;5045532;28;20021;-84
2023/07/09 08:40:15;;;;;;;1.80;1.20;;;;;;;31.48;31.22;99866.63;5044226;28;20029;-85
2023/07/09 08:42:45;;;;;;;1.80;1.00;;;;;;;32.25;33.44;99869.75;5039894;28;20063;-86
2023/07/09 08:45:27;;;;;;;2.15;1.13;;;;;;;32.88;32.05;99890.50;5039899;28;20065;-84
2023/07/09 08:47:59;;;;;;;1.70;1.05;;;;;;;32.03;33.33;99903.84;5047833;28;20120;-86
2023/07/09 08:50:34;;;;;;;1.90;1.17;;;;;;;32.18;33.43;99855.91;5050799;28;20029;-84
2023/07/09 08:53:01;;;;;;;1.65;0.98;;;;;;;32.26;31.89;99882.41;5049917;28;20033;-85
2023/07/09 08:55:34;;;;;;;4.50;2.47;;;;;;;32.18;30.84;99883.19;5049197;28;20039;-86
2023/07/09 08:58:21;;;;;;;9.73;2.38;;;;;;;32.69;30.65;99877.94;5049499;28;20029;-85
2023/07/09 09:00:58;;;;;;;1.73;1.13;;;;;;;32.34;31.09;99859.78;5046556;28;20098;-85
2023/07/09 09:03:31;;;;;;;2.05;1.15;;;;;;;32.21;30.28;99862.91;5043580;28;20047;-84
2023/07/09 09:05:57;;;;;;;8.75;1.38;;;;;;;31.88;30.54;99857.16;5050159;28;20074;-83
2023/07/09 09:08:44;;;;;;;6.07;2.08;;;;;;;32.81;30.49;99863.00;5038392;28;20053;-83
2023/07/09 09:11:15;;;;;;;1.20;0.82;;;;;;;33.19;29.87;99890.81;5051050;28;20108;-84
2023/07/09 09:13:42;;;;;;;1.25;1.10;;;;;;;32.31;28.93;99855.47;5039721;28;20077;-84
2023/07/09 09:16:29;;;;;;;1.85;1.35;;;;;;;32.28;29.70;99873.03;5030694;28;20041;-84
2023/07/09 09:18:58;;;;;;;1.42;1.05;;;;;;;32.68;29.89;99864.44;5046710;28;20052;-84
2023/07/09 09:21:36;;;;;;;1.52;1.00;;;;;;;32.30;30.28;99868.28;5045320;28;20031;-83
2023/07/09 09:24:16;;;;;;;1.88;1.23;;;;;;;32.35;31.42;99847.81;5049383;28;20099;-88
2023/07/09 09:26:44;;;;;;;1.05;0.52;;;;;;;32.12;30.39;99859.28;5042795;28;20122;-85
2023/07/09 09:29:15;;;;;;;1.55;1.00;;;;;;;32.20;30.17;99872.13;5047631;28;20031;-83
2023/07/09 09:31:44;;;;;;;3.65;1.67;;;;;;;32.25;30.92;99853.38;5044395;28;20033;-86
2023/07/09 09:34:18;;;;;;;1.40;1.13;;;;;;;32.12;30.97;99851.09;5047968;28;20036;-85
2023/07/09 09:36:44;;;;;;;1.55;0.80;;;;;;;32.42;34.17;99846.16;5043564;28;20388;-82
2023/07/09 09:39:10;;;;;;;1.60;0.93;;;;;;;32.48;30.91;99876.41;5038490;28;20036;-84
2023/07/09 09:41:37;;;;;;;1.73;0.88;;;;;;;32.19;29.19;99878.59;5030886;28;20068;-84
2023/07/09 09:44:04;;;;;;;2.05;0.73;;;;;;;32.20;30.19;99855.75;5040989;28;20407;-85
2023/07/09 09:46:32;;;;;;;1.95;0.73;;;;;;;32.20;28.38;99850.28;5044824;28;20029;-85
2023/07/09 09:49:02;;;;;;;2.83;1.55;;;;;;;32.61;28.27;99877.84;5045066;28;20040;-84
2023/07/09 09:51:29;;;;;;;1.27;1.08;;;;;;;32.63;29.37;99848.53;5039825;28;20036;-86
2023/07/09 09:54:00;;;;;;;3.15;0.88;;;;;;;32.65;32.45;99833.69;5043649;28;20490;-86
2023/07/09 09:56:33;;;;;;;0.85;0.77;;;;;;;32.74;27.81;99840.06;5044707;28;20604;-87
2023/07/09 09:59:00;;;;;;;1.95;1.08;;;;;;;33.07;28.64;99851.13;5039651;28;20159;-87
2023/07/09 10:01:37;;;;;;;3.47;1.17;;;;;;;33.39;28.27;99838.63;5044570;28;20083;-85
2023/07/09 10:04:04;;;;;;;2.28;0.80;;;;;;;33.52;29.78;99854.53;5044248;28;20033;-84
2023/07/09 10:06:41;;;;;;;2.88;1.30;;;;;;;33.63;32.83;99815.94;5039287;28;20418;-86
2023/07/09 10:09:09;;;;;;;2.00;1.00;;;;;;;33.52;26.86;99857.25;5040804;28;20056;-85
2023/07/09 10:11:45;;;;;;;1.20;0.88;;;;;;;33.05;28.52;99860.53;5047194;28;20115;-84
2023/07/09 10:14:44;;;;;;;1.08;0.57;;;;;;;32.45;28.42;99843.97;5040609;28;20138;-86
2023/07/09 10:17:38;;;;;;;2.22;1.30;;;;;;;32.91;29.71;99821.88;5038485;28;20651;-85
2023/07/09 10:20:15;;;;;;;2.10;1.35;;;;;;;33.50;29.16;99821.88;4968818;28;20038;-85
2023/07/09 10:22:43;;;;;;;3.47;1.52;;;;;;;32.96;28.29;99813.19;4969499;28;20038;-86
2023/07/09 10:25:34;;;;;;;1.27;0.70;;;;;;;32.33;27.04;99814.38;4968980;28;20532;-85
2023/07/09 10:28:18;;;;;;;0.88;0.70;;;;;;;32.58;28.48;99826.28;4892320;29;20095;-87
2023/07/09 10:31:06;;;;;;;2.83;0.95;;;;;;;32.76;26.89;99845.38;4895132;29;20086;-86
2023/07/09 10:33:48;;;;;;;1.55;1.40;;;;;;;32.53;26.91;99834.13;4890580;29;20048;-85
2023/07/09 10:36:23;;;;;;;2.40;1.17;;;;;;;32.55;26.77;99832.06;4898272;29;20066;-86
2023/07/09 10:38:48;;;;;;;;;;;;;;;32.58;25.54;99831.75;4896691;29;22234;-84
2023/07/09 10:41:16;;;;;;;2.83;1.50;;;;;;;32.88;26.88;99816.75;4897068;29;19919;-84
2023/07/09 10:43:49;;;;;;;2.35;1.10;;;;;;;33.12;25.60;99796.00;4897295;29;20547;-84
2023/07/09 10:46:23;;;;;;;2.83;1.00;;;;;;;33.44;25.85;99821.72;4890266;29;20270;-84
2023/07/09 10:48:51;;;;;;;2.67;1.23;;;;;;;33.57;27.11;99810.28;4905029;29;20032;-84
2023/07/09 10:51:32;;;;;;;4.78;2.13;;;;;;;33.47;25.78;99803.09;4902035;29;20037;-84
2023/07/09 10:54:12;;;;;;;2.65;1.38;;;;;;;33.16;28.06;99811.88;4913108;29;20044;-82
2023/07/09 10:56:40;;;;;;;1.75;0.90;;;;;;;33.18;28.53;99798.97;4920593;28;20046;-83
2023/07/09 10:59:14;;;;;;;1.85;1.30;;;;;;;33.22;28.37;99826.81;4971150;28;20045;-83
2023/07/09 11:01:43;;;;;;;2.55;1.48;;;;;;;33.08;27.55;99821.94;4972468;28;20064;-83
2023/07/09 11:04:20;;;;;;;2.53;1.17;;;;;;;33.33;27.06;99792.81;4983568;28;20041;-83
2023/07/09 11:06:49;;;;;;;1.95;1.00;;;;;;;33.49;25.64;99794.72;5052866;28;20048;-84
2023/07/09 11:09:29;;;;;;;16.08;1.48;;;;;;;33.24;25.14;99815.69;5049904;28;20094;-83
2023/07/09 11:11:59;;;;;;;1.45;0.95;;;;;;;33.33;25.78;99788.22;5050245;28;20479;-83
2023/07/09 11:14:33;;;;;;;1.85;1.15;;;;;;;34.15;24.59;99808.44;5050776;28;20090;-83
2023/07/09 11:17:00;;;;;;;1.70;0.98;;;;;;;34.27;23.77;99801.59;5051032;28;20078;-84
2023/07/09 11:19:27;;;;;;;3.10;1.33;;;;;;;34.15;24.29;99801.06;5051634;28;20469;-84
2023/07/09 11:22:14;;;;;;;2.53;0.98;;;;;;;34.23;24.50;99781.03;5051541;28;20083;-86
2023/07/09 11:25:04;;;;;;;4.88;1.77;;;;;;;34.39;25.15;99781.03;5050896;28;20060;-82
2023/07/09 11:27:31;;;;;;;3.35;1.50;;;;;;;34.04;25.28;99772.19;5046051;28;20033;-84
2023/07/09 11:30:17;;;;;;;3.85;1.70;;;;;;;33.96;25.61;99774.94;5049258;28;20039;-84
2023/07/09 11:32:47;;;;;;;2.92;1.67;;;;;;;33.65;25.42;99777.50;5045931;28;20040;-83
2023/07/09 11:35:24;;;;;;;3.42;1.83;;;;;;;33.62;25.28;99773.22;5044422;28;20072;-82
2023/07/09 11:37:50;;;;;;;3.22;2.30;;;;;;;33.68;25.13;99772.53;5047796;28;20037;-82
2023/07/09 11:40:19;;;;;;;3.83;1.23;;;;;;;34.10;25.88;99770.63;5045135;28;20090;-83